Terminal Aerodrome Forecast
Issued by NWS Portland, OR

Home | Current Version | Previous Version | Text Only | Print | Product List | Glossary On
Versions: 1 2 3 4 5 6 7 8 9 10 11 12 13 14 15 16 17 18 19 20 21 22 23 24 25 26 27 28 29 30 31 32 33 34 35 36
000
FTUS46 KPQR 200819 AAA
TAFSLE
TAF AMD
KSLE 200819Z 2008/2106 18014KT P6SM -RA SCT025 OVC040
     FM201000 18014KT 6SM -RA BR BKN025 OVC035
     FM201200 19013G22KT P6SM -RA BKN015 OVC025
     FM201400 19009KT P6SM -RA SCT008 OVC015
     FM201900 20004KT P6SM VCSH SCT012 OVC025
     FM202100 21006KT P6SM SCT025 OVC045=

USA.gov is the U.S. government's official web portal to all federal, state and local government web resources and services.